< < Back
Terminal Aerodrome Forecast


Current Version              Previous Versions:   1  2  3  4  5  6  7  8  9  

Terminal Aerodrome Forecast

079
FTUS44 KMRX 250520
TAFTYS
TAF
KTYS 250520Z 2506/2606 00000KT P6SM SKC
     FM251400 VRB03KT P6SM SKC
     FM252000 24005KT P6SM BKN050=



Latest METAR

144
SAUS80 KWBC 260900
MTRTYS
METAR KTYS 260853Z 00000KT 10SM CLR 12/10 A3000 RMK AO2 SLP153 T01170100
55001


USA.gov is the U.S. government's official web portal to all federal, state and local government web resources and services.